Golden Gate — WDF7183 — position and weather

sailwx.info

Track history (hours):
 
Tides and Currents Weather Stations Pressure Air Temp Water Temp Dewpoint Dewpoint Depression Visibility Wind Speed Wind Dir Waves Ship Positions

Golden Gate

Owner: Golden Gate Bridge Highway and Transportation District, San Francisco, CA. More information available from US FCC via Universal Licensing System and Coast Guard Vessel Documentation Center.

Last reported at 2018-Feb-21 14:59 UTC. Time now 2018-Feb-21 15:30 UTC.
Position N 37°57' W 122°31'.

Length 41 m; draft 3.8 m.

Type: Passenger vessel. MMSI: 366778450.

Date/timePositionNaut miles runAvg speedWind from/ knotsBaromVisibWave heightAir tempDewpointWater temp
2018-Feb-21 14:59N 37°57' W 122°31'0 0.0
2018-Feb-21 01:59N 37°57' W 122°30'1022.3
2018-Feb-21 01:30N 37°48' W 122°23'1 1.7
2018-Feb-21 01:01N 37°49' W 122°23'1019.7
2018-Feb-21 00:30N 37°57' W 122°30'1020.5
2018-Feb-21 00:00N 37°48' W 122°24'511.0
2018-Feb-20 23:31N 37°53' W 122°26'510.7
2018-Feb-20 23:00N 37°57' W 122°31'0 0.0
2018-Feb-20 22:30N 37°57' W 122°31'0 0.0
2018-Feb-20 22:01N 37°57' W 122°31'0 0.0
2018-Feb-20 21:30N 37°57' W 122°31'0 0.0
2018-Feb-20 21:00N 37°57' W 122°31'0 0.0
2018-Feb-20 20:30N 37°57' W 122°31'0 0.0
2018-Feb-20 20:00N 37°57' W 122°31'0 0.0
2018-Feb-20 19:31N 37°57' W 122°31'0 0.0
2018-Feb-20 19:01N 37°57' W 122°31'0 0.0
2018-Feb-20 18:30N 37°57' W 122°31'0 0.0
2018-Feb-20 18:00N 37°57' W 122°31'1019.7
2018-Feb-20 17:31N 37°49' W 122°23'917.3
2018-Feb-20 17:01N 37°56' W 122°29'1 1.3
2018-Feb-20 16:30N 37°56' W 122°30'1020.0
2018-Feb-20 16:00N 37°48' W 122°24'1020.4
2018-Feb-20 15:30N 37°57' W 122°30'0 0.1
2018-Feb-20 15:00N 37°57' W 122°31'  
2018-Feb-17 02:00N 37°57' W 122°30'1020.2
2018-Feb-17 01:29N 37°48' W 122°24'1 1.8
2018-Feb-17 01:00N 37°49' W 122°23'1019.3
2018-Feb-17 00:30N 37°57' W 122°30'1021.2
2018-Feb-17 00:00N 37°48' W 122°24'510.4
2018-Feb-16 23:31N 37°53' W 122°26'611.2
2018-Feb-16 23:00N 37°57' W 122°31'0 0.0
2018-Feb-16 22:30N 37°57' W 122°31'0 0.0
2018-Feb-16 22:00N 37°57' W 122°31'0 0.0
2018-Feb-16 21:31N 37°57' W 122°31'0 0.0
2018-Feb-16 21:00N 37°57' W 122°31'0 0.0
2018-Feb-16 20:31N 37°57' W 122°31'0 0.0
2018-Feb-16 19:58N 37°57' W 122°31'0 0.0
2018-Feb-16 19:30N 37°57' W 122°31'0 0.0
2018-Feb-16 19:01N 37°57' W 122°31'0 0.0
2018-Feb-16 18:31N 37°57' W 122°31'0 0.0
2018-Feb-16 18:01N 37°57' W 122°31'1020.9
2018-Feb-16 17:30N 37°48' W 122°24'1019.3
2018-Feb-16 17:00N 37°56' W 122°30'0 0.9
2018-Feb-16 16:31N 37°56' W 122°30'1020.0
2018-Feb-16 16:00N 37°48' W 122°24'1021.0
2018-Feb-16 15:30N 37°57' W 122°30'0 0.1
2018-Feb-16 15:00N 37°57' W 122°31'0 0.0
2018-Feb-16 02:07N 37°57' W 122°30'0 3.0
2018-Feb-16 02:00N 37°56' W 122°30'1020.4
2018-Feb-16 01:30N 37°48' W 122°24'1 2.4
2018-Feb-16 01:01N 37°49' W 122°24'918.3
2018-Feb-16 00:29N 37°57' W 122°30'1021.6
2018-Feb-16 00:00N 37°48' W 122°24'715.0
2018-Feb-15 23:31N 37°55' W 122°27'3 6.6
2018-Feb-15 23:01N 37°57' W 122°31'0 0.0
2018-Feb-15 22:31N 37°57' W 122°31'0 0.0
2018-Feb-15 22:00N 37°57' W 122°31'0 0.0
2018-Feb-15 21:30N 37°57' W 122°31'0 0.0
2018-Feb-15 21:00N 37°57' W 122°31'0 0.0
2018-Feb-15 20:31N 37°57' W 122°31'0 0.0
2018-Feb-15 20:00N 37°57' W 122°31'0 0.0
2018-Feb-15 19:30N 37°57' W 122°31'0 0.0
2018-Feb-15 19:00N 37°57' W 122°31'0 0.0
2018-Feb-15 18:28N 37°57' W 122°31'0 0.0
2018-Feb-15 18:00N 37°57' W 122°31'1121.5
2018-Feb-15 17:31N 37°48' W 122°23'1018.8
2018-Feb-15 16:59N 37°56' W 122°30'1 1.3
2018-Feb-15 16:30N 37°57' W 122°30'1020.8
2018-Feb-15 16:00N 37°48' W 122°24'1020.9
2018-Feb-15 15:31N 37°57' W 122°30'0 0.2
2018-Feb-15 15:00N 37°57' W 122°31'0 0.0
2018-Feb-15 01:52N 37°57' W 122°30'924.9
2018-Feb-15 01:31N 37°50' W 122°23'1 2.7
2018-Feb-15 01:01N 37°48' W 122°23'1020.4
2018-Feb-15 00:30N 37°57' W 122°30'1021.0
2018-Feb-15 00:00N 37°48' W 122°24'612.2
2018-Feb-14 23:30N 37°53' W 122°26'5 9.0
2018-Feb-14 22:59N 37°57' W 122°31'0 0.0
2018-Feb-14 22:30N 37°57' W 122°31'0 0.0
2018-Feb-14 22:00N 37°57' W 122°31'0 0.0
2018-Feb-14 21:30N 37°57' W 122°31'0 0.0
2018-Feb-14 20:25N 37°57' W 122°31'0 0.0
2018-Feb-14 20:01N 37°57' W 122°31'0 0.0
2018-Feb-14 19:30N 37°57' W 122°31'0 0.0
2018-Feb-14 19:00N 37°57' W 122°31'0 0.3
2018-Feb-14 18:30N 37°57' W 122°30'0 0.2
2018-Feb-14 18:00N 37°57' W 122°31'1020.9
2018-Feb-14 17:30N 37°48' W 122°23'1019.0
2018-Feb-14 17:00N 37°56' W 122°29'1 1.1
2018-Feb-14 16:31N 37°56' W 122°30'1019.9
2018-Feb-14 16:00N 37°48' W 122°24'1020.9
2018-Feb-14 15:30N 37°57' W 122°30'0 0.0
2018-Feb-14 02:16N 37°57' W 122°31'0 0.3
2018-Feb-14 02:00N 37°57' W 122°30'1019.9
2018-Feb-14 01:30N 37°49' W 122°23'2 3.2
2018-Feb-14 01:01N 37°50' W 122°24'816.4
2018-Feb-14 00:30N 37°57' W 122°30'1021.1
2018-Feb-14 00:01N 37°48' W 122°24'1 1.7
2018-Feb-13 23:31N 37°49' W 122°23'1019.8
2018-Feb-13 23:00N 37°57' W 122°31'0 0.0
2018-Feb-13 22:30N 37°57' W 122°31'0 0.0
2018-Feb-13 22:00N 37°57' W 122°31'0 0.0
2018-Feb-13 21:30N 37°57' W 122°31'0 0.0
2018-Feb-13 21:00N 37°57' W 122°31'0 0.0
2018-Feb-13 20:30N 37°57' W 122°31'0 0.0
2018-Feb-13 20:00N 37°57' W 122°31'0 0.0
2018-Feb-13 19:30N 37°57' W 122°31'0 0.0
2018-Feb-13 19:00N 37°57' W 122°31'0 0.0
2018-Feb-13 18:30N 37°57' W 122°31'0 0.0
2018-Feb-13 18:00N 37°57' W 122°31'1020.9
2018-Feb-13 17:30N 37°48' W 122°23'918.9
2018-Feb-13 17:00N 37°56' W 122°29'1 1.6
2018-Feb-13 16:30N 37°57' W 122°30'1020.5
2018-Feb-13 16:00N 37°48' W 122°24'1020.7
2018-Feb-13 15:30N 37°57' W 122°30'0 0.3
2018-Feb-13 15:00N 37°57' W 122°31'0 0.0
2018-Feb-13 01:52N 37°57' W 122°30'1027.7
2018-Feb-13 01:30N 37°48' W 122°23'0 0.1
2018-Feb-13 01:00N 37°48' W 122°23'1020.7
2018-Feb-13 00:31N 37°57' W 122°30'1020.8
2018-Feb-13 00:00N 37°48' W 122°24'0 0.6
2018-Feb-12 23:30N 37°48' W 122°23'1020.9
2018-Feb-12 23:00N 37°57' W 122°30'0 0.1
2018-Feb-12 22:30N 37°57' W 122°31'0 0.0
2018-Feb-12 22:01N 37°57' W 122°31'0 0.0
2018-Feb-12 21:29N 37°57' W 122°31'0 0.0
2018-Feb-12 21:00N 37°57' W 122°31'0 0.0
2018-Feb-12 20:30N 37°57' W 122°31'0 0.0
2018-Feb-12 20:00N 37°57' W 122°31'0 0.0
2018-Feb-12 19:30N 37°57' W 122°31'0 0.0
2018-Feb-12 19:01N 37°57' W 122°31'0 0.0
2018-Feb-12 18:30N 37°57' W 122°31'0 0.0
2018-Feb-12 18:00N 37°57' W 122°31'1020.6
2018-Feb-12 17:30N 37°48' W 122°23'918.5
2018-Feb-12 17:00N 37°56' W 122°29'1 2.1
2018-Feb-12 16:31N 37°57' W 122°30'1020.6
2018-Feb-12 16:00N 37°48' W 122°24'1020.8
2018-Feb-12 15:30N 37°57' W 122°30'0 0.3
2018-Feb-12 15:00N 37°57' W 122°31'  
Track history (hours):
 
Tides and Currents Weather Stations Pressure Air Temp Water Temp Dewpoint Dewpoint Depression Visibility Wind Speed Wind Dir Waves Ship Positions

Golden Gate

Owner: Golden Gate Bridge Highway and Transportation District, San Francisco, CA. More information available from US FCC via Universal Licensing System and Coast Guard Vessel Documentation Center.

Last reported at 2018-Feb-21 14:59 UTC. Time now 2018-Feb-21 15:30 UTC.
Position N 37°57' W 122°31'.

Length 41 m; draft 3.8 m.

Type: Passenger vessel. MMSI: 366778450.

Date/timePositionNaut miles runAvg speedWind from/ knotsBaromVisibWave heightAir tempDewpointWater temp
2018-Feb-21 14:59N 37°57' W 122°31'0 0.0
2018-Feb-21 01:59N 37°57' W 122°30'1022.3
2018-Feb-21 01:30N 37°48' W 122°23'1 1.7
2018-Feb-21 01:01N 37°49' W 122°23'1019.7
2018-Feb-21 00:30N 37°57' W 122°30'1020.5
2018-Feb-21 00:00N 37°48' W 122°24'511.0
2018-Feb-20 23:31N 37°53' W 122°26'510.7
2018-Feb-20 23:00N 37°57' W 122°31'0 0.0
2018-Feb-20 22:30N 37°57' W 122°31'0 0.0
2018-Feb-20 22:01N 37°57' W 122°31'0 0.0
2018-Feb-20 21:30N 37°57' W 122°31'0 0.0
2018-Feb-20 21:00N 37°57' W 122°31'0 0.0
2018-Feb-20 20:30N 37°57' W 122°31'0 0.0
2018-Feb-20 20:00N 37°57' W 122°31'0 0.0
2018-Feb-20 19:31N 37°57' W 122°31'0 0.0
2018-Feb-20 19:01N 37°57' W 122°31'0 0.0
2018-Feb-20 18:30N 37°57' W 122°31'0 0.0
2018-Feb-20 18:00N 37°57' W 122°31'1019.7
2018-Feb-20 17:31N 37°49' W 122°23'917.3
2018-Feb-20 17:01N 37°56' W 122°29'1 1.3
2018-Feb-20 16:30N 37°56' W 122°30'1020.0
2018-Feb-20 16:00N 37°48' W 122°24'1020.4
2018-Feb-20 15:30N 37°57' W 122°30'0 0.1
2018-Feb-20 15:00N 37°57' W 122°31'  
2018-Feb-17 02:00N 37°57' W 122°30'1020.2
2018-Feb-17 01:29N 37°48' W 122°24'1 1.8
2018-Feb-17 01:00N 37°49' W 122°23'1019.3
2018-Feb-17 00:30N 37°57' W 122°30'1021.2
2018-Feb-17 00:00N 37°48' W 122°24'510.4
2018-Feb-16 23:31N 37°53' W 122°26'611.2
2018-Feb-16 23:00N 37°57' W 122°31'0 0.0
2018-Feb-16 22:30N 37°57' W 122°31'0 0.0
2018-Feb-16 22:00N 37°57' W 122°31'0 0.0
2018-Feb-16 21:31N 37°57' W 122°31'0 0.0
2018-Feb-16 21:00N 37°57' W 122°31'0 0.0
2018-Feb-16 20:31N 37°57' W 122°31'0 0.0
2018-Feb-16 19:58N 37°57' W 122°31'0 0.0
2018-Feb-16 19:30N 37°57' W 122°31'0 0.0
2018-Feb-16 19:01N 37°57' W 122°31'0 0.0
2018-Feb-16 18:31N 37°57' W 122°31'0 0.0
2018-Feb-16 18:01N 37°57' W 122°31'1020.9
2018-Feb-16 17:30N 37°48' W 122°24'1019.3
2018-Feb-16 17:00N 37°56' W 122°30'0 0.9
2018-Feb-16 16:31N 37°56' W 122°30'1020.0
2018-Feb-16 16:00N 37°48' W 122°24'1021.0
2018-Feb-16 15:30N 37°57' W 122°30'0 0.1
2018-Feb-16 15:00N 37°57' W 122°31'0 0.0
2018-Feb-16 02:07N 37°57' W 122°30'0 3.0
2018-Feb-16 02:00N 37°56' W 122°30'1020.4
2018-Feb-16 01:30N 37°48' W 122°24'1 2.4
2018-Feb-16 01:01N 37°49' W 122°24'918.3
2018-Feb-16 00:29N 37°57' W 122°30'1021.6
2018-Feb-16 00:00N 37°48' W 122°24'715.0
2018-Feb-15 23:31N 37°55' W 122°27'3 6.6
2018-Feb-15 23:01N 37°57' W 122°31'0 0.0
2018-Feb-15 22:31N 37°57' W 122°31'0 0.0
2018-Feb-15 22:00N 37°57' W 122°31'0 0.0
2018-Feb-15 21:30N 37°57' W 122°31'0 0.0
2018-Feb-15 21:00N 37°57' W 122°31'0 0.0
2018-Feb-15 20:31N 37°57' W 122°31'0 0.0
2018-Feb-15 20:00N 37°57' W 122°31'0 0.0
2018-Feb-15 19:30N 37°57' W 122°31'0 0.0
2018-Feb-15 19:00N 37°57' W 122°31'0 0.0
2018-Feb-15 18:28N 37°57' W 122°31'0 0.0
2018-Feb-15 18:00N 37°57' W 122°31'1121.5
2018-Feb-15 17:31N 37°48' W 122°23'1018.8
2018-Feb-15 16:59N 37°56' W 122°30'1 1.3
2018-Feb-15 16:30N 37°57' W 122°30'1020.8
2018-Feb-15 16:00N 37°48' W 122°24'1020.9
2018-Feb-15 15:31N 37°57' W 122°30'0 0.2
2018-Feb-15 15:00N 37°57' W 122°31'0 0.0
2018-Feb-15 01:52N 37°57' W 122°30'924.9
2018-Feb-15 01:31N 37°50' W 122°23'1 2.7
2018-Feb-15 01:01N 37°48' W 122°23'1020.4
2018-Feb-15 00:30N 37°57' W 122°30'1021.0
2018-Feb-15 00:00N 37°48' W 122°24'612.2
2018-Feb-14 23:30N 37°53' W 122°26'5 9.0
2018-Feb-14 22:59N 37°57' W 122°31'0 0.0
2018-Feb-14 22:30N 37°57' W 122°31'0 0.0
2018-Feb-14 22:00N 37°57' W 122°31'0 0.0
2018-Feb-14 21:30N 37°57' W 122°31'0 0.0
2018-Feb-14 20:25N 37°57' W 122°31'0 0.0
2018-Feb-14 20:01N 37°57' W 122°31'0 0.0
2018-Feb-14 19:30N 37°57' W 122°31'0 0.0
2018-Feb-14 19:00N 37°57' W 122°31'0 0.3
2018-Feb-14 18:30N 37°57' W 122°30'0 0.2
2018-Feb-14 18:00N 37°57' W 122°31'1020.9
2018-Feb-14 17:30N 37°48' W 122°23'1019.0
2018-Feb-14 17:00N 37°56' W 122°29'1 1.1
2018-Feb-14 16:31N 37°56' W 122°30'1019.9
2018-Feb-14 16:00N 37°48' W 122°24'1020.9
2018-Feb-14 15:30N 37°57' W 122°30'0 0.0
2018-Feb-14 02:16N 37°57' W 122°31'0 0.3
2018-Feb-14 02:00N 37°57' W 122°30'1019.9
2018-Feb-14 01:30N 37°49' W 122°23'2 3.2
2018-Feb-14 01:01N 37°50' W 122°24'816.4
2018-Feb-14 00:30N 37°57' W 122°30'1021.1
2018-Feb-14 00:01N 37°48' W 122°24'1 1.7
2018-Feb-13 23:31N 37°49' W 122°23'1019.8
2018-Feb-13 23:00N 37°57' W 122°31'0 0.0
2018-Feb-13 22:30N 37°57' W 122°31'0 0.0
2018-Feb-13 22:00N 37°57' W 122°31'0 0.0
2018-Feb-13 21:30N 37°57' W 122°31'0 0.0
2018-Feb-13 21:00N 37°57' W 122°31'0 0.0
2018-Feb-13 20:30N 37°57' W 122°31'0 0.0
2018-Feb-13 20:00N 37°57' W 122°31'0 0.0
2018-Feb-13 19:30N 37°57' W 122°31'0 0.0
2018-Feb-13 19:00N 37°57' W 122°31'0 0.0
2018-Feb-13 18:30N 37°57' W 122°31'0 0.0
2018-Feb-13 18:00N 37°57' W 122°31'1020.9
2018-Feb-13 17:30N 37°48' W 122°23'918.9
2018-Feb-13 17:00N 37°56' W 122°29'1 1.6
2018-Feb-13 16:30N 37°57' W 122°30'1020.5
2018-Feb-13 16:00N 37°48' W 122°24'1020.7
2018-Feb-13 15:30N 37°57' W 122°30'0 0.3
2018-Feb-13 15:00N 37°57' W 122°31'0 0.0
2018-Feb-13 01:52N 37°57' W 122°30'1027.7
2018-Feb-13 01:30N 37°48' W 122°23'0 0.1
2018-Feb-13 01:00N 37°48' W 122°23'1020.7
2018-Feb-13 00:31N 37°57' W 122°30'1020.8
2018-Feb-13 00:00N 37°48' W 122°24'0 0.6
2018-Feb-12 23:30N 37°48' W 122°23'1020.9
2018-Feb-12 23:00N 37°57' W 122°30'0 0.1
2018-Feb-12 22:30N 37°57' W 122°31'0 0.0
2018-Feb-12 22:01N 37°57' W 122°31'0 0.0
2018-Feb-12 21:29N 37°57' W 122°31'0 0.0
2018-Feb-12 21:00N 37°57' W 122°31'0 0.0
2018-Feb-12 20:30N 37°57' W 122°31'0 0.0
2018-Feb-12 20:00N 37°57' W 122°31'0 0.0
2018-Feb-12 19:30N 37°57' W 122°31'0 0.0
2018-Feb-12 19:01N 37°57' W 122°31'0 0.0
2018-Feb-12 18:30N 37°57' W 122°31'0 0.0
2018-Feb-12 18:00N 37°57' W 122°31'1020.6
2018-Feb-12 17:30N 37°48' W 122°23'918.5
2018-Feb-12 17:00N 37°56' W 122°29'1 2.1
2018-Feb-12 16:31N 37°57' W 122°30'1020.6
2018-Feb-12 16:00N 37°48' W 122°24'1020.8
2018-Feb-12 15:30N 37°57' W 122°30'0 0.3
2018-Feb-12 15:00N 37°57' W 122°31'  

Dump ship's entire track history